Time;durP1;ratioP1;P1;durP2;ratioP2;P2;SDS_P1;SDS_P2;PMS_P1;PMS_P2;Temp;Humidity;BMP_temperature;BMP_pressure;BME280_temperature;BME280_humidity;BME280_pressure;Samples;Min_cycle;Max_cycle;Signal;HPM_P1;HPM_P2
2022/05/29 00:00:48;;;;;;;14.00;3.45;;;9.40;99.90;;;;;;5047666;28;20033;-68
2022/05/29 00:03:14;;;;;;;10.10;2.63;;;9.50;99.90;;;;;;5068148;28;20748;-68
2022/05/29 00:05:41;;;;;;;13.10;4.10;;;9.50;99.90;;;;;;5043079;28;20073;-68
2022/05/29 00:08:09;;;;;;;9.98;3.45;;;9.50;99.90;;;;;;5034150;28;20071;-68
2022/05/29 00:10:37;;;;;;;11.13;2.83;;;9.50;99.90;;;;;;5045342;28;20056;-68
2022/05/29 00:13:03;;;;;;;10.77;3.17;;;9.50;99.90;;;;;;5062426;28;20147;-68
2022/05/29 00:15:29;;;;;;;14.55;3.13;;;9.60;99.90;;;;;;5060559;28;20095;-68
2022/05/29 00:17:55;;;;;;;12.60;3.22;;;9.60;99.90;;;;;;5050824;28;20079;-68
2022/05/29 00:20:20;;;;;;;10.60;3.13;;;9.60;99.90;;;;;;5044569;28;20043;-68
2022/05/29 00:22:46;;;;;;;11.15;2.80;;;9.60;99.90;;;;;;5046727;28;20055;-68
2022/05/29 00:25:12;;;;;;;10.60;3.55;;;9.60;99.90;;;;;;5046651;28;20048;-68
2022/05/29 00:27:39;;;;;;;16.60;3.80;;;9.60;99.90;;;;;;5062810;28;20043;-68
2022/05/29 00:30:08;;;;;;;13.27;3.30;;;9.60;99.90;;;;;;5033402;28;20185;-68
2022/05/29 00:32:34;;;;;;;8.75;2.92;;;9.60;99.90;;;;;;5043438;28;20045;-68
2022/05/29 00:35:00;;;;;;;9.77;3.08;;;9.60;99.90;;;;;;5045448;28;20055;-68
2022/05/29 00:37:27;;;;;;;10.73;3.20;;;9.60;99.90;;;;;;5044087;28;20094;-68
2022/05/29 00:39:54;;;;;;;11.05;3.47;;;9.60;99.90;;;;;;5055474;28;20070;-68
2022/05/29 00:42:24;;;;;;;12.63;3.58;;;9.60;99.90;;;;;;5055915;28;20036;-68
2022/05/29 00:44:50;;;;;;;14.60;3.67;;;9.60;99.90;;;;;;5047641;28;20048;-68
2022/05/29 00:47:19;;;;;;;13.70;3.50;;;9.50;99.90;;;;;;5063079;28;20451;-68
2022/05/29 00:49:49;;;;;;;10.48;3.25;;;9.60;99.90;;;;;;5047706;28;20084;-68
2022/05/29 00:52:24;;;;;;;15.10;3.33;;;9.70;99.90;;;;;;5045742;28;20373;-68
2022/05/29 00:55:03;;;;;;;15.10;3.55;;;9.60;99.90;;;;;;5066618;28;20094;-68
2022/05/29 00:57:37;;;;;;;11.65;3.25;;;9.60;99.90;;;;;;5039944;28;20495;-68
2022/05/29 01:00:09;;;;;;;13.80;3.17;;;9.60;99.90;;;;;;5046411;28;20105;-68
2022/05/29 01:02:35;;;;;;;12.23;3.13;;;9.60;99.90;;;;;;5056091;28;20123;-68
2022/05/29 01:05:04;;;;;;;13.75;3.22;;;9.60;99.90;;;;;;5047301;28;20123;-68
2022/05/29 01:07:30;;;;;;;14.10;3.17;;;9.50;99.90;;;;;;5040865;28;20068;-68
2022/05/29 01:09:58;;;;;;;13.63;4.25;;;9.50;99.90;;;;;;5064309;28;20040;-68
2022/05/29 01:12:35;;;;;;;11.40;3.30;;;9.40;99.90;;;;;;5044110;28;20204;-68
2022/05/29 01:15:29;;;;;;;11.52;2.83;;;9.40;99.90;;;;;;5048151;28;20507;-68
2022/05/29 01:18:02;;;;;;;14.88;3.40;;;9.30;99.90;;;;;;5063467;28;20042;-68
2022/05/29 01:20:50;;;;;;;12.30;3.03;;;9.30;99.90;;;;;;5061379;28;20427;-68
2022/05/29 01:23:27;;;;;;;13.30;3.28;;;9.20;99.90;;;;;;5041737;28;20614;-68
2022/05/29 01:26:20;;;;;;;14.57;3.88;;;9.20;99.90;;;;;;5050440;28;20198;-68
2022/05/29 01:29:00;;;;;;;17.23;3.80;;;9.20;99.90;;;;;;5047886;28;20194;-68
2022/05/29 01:31:30;;;;;;;11.65;3.58;;;9.20;99.90;;;;;;5047653;28;20199;-68
2022/05/29 01:34:12;;;;;;;13.77;3.05;;;9.20;99.90;;;;;;5056184;28;20079;-68
2022/05/29 01:36:58;;;;;;;14.82;4.10;;;9.30;99.90;;;;;;5061126;28;20143;-68
2022/05/29 01:39:50;;;;;;;9.57;4.03;;;9.20;99.90;;;;;;5062262;28;20036;-68
2022/05/29 01:42:46;;;;;;;14.32;3.63;;;9.30;99.90;;;;;;5009558;28;20407;-68
2022/05/29 01:45:55;;;;;;;14.57;3.35;;;9.30;99.90;;;;;;5048176;28;20507;-68
2022/05/29 01:48:56;;;;;;;10.48;3.05;;;9.30;99.90;;;;;;5037727;28;20400;-68
2022/05/29 01:51:25;;;;;;;10.35;2.83;;;9.30;99.90;;;;;;5018853;28;20041;-68
2022/05/29 01:54:10;;;;;;;10.80;3.55;;;9.30;99.90;;;;;;5059416;28;20043;-68
2022/05/29 01:56:45;;;;;;;11.85;3.50;;;9.30;99.90;;;;;;5062104;28;20108;-68
2022/05/29 01:59:15;;;;;;;16.55;3.88;;;9.30;99.90;;;;;;5043093;28;20128;-68
2022/05/29 02:01:54;;;;;;;13.52;3.65;;;9.20;99.90;;;;;;5064130;28;20088;-68
2022/05/29 02:04:24;;;;;;;11.82;3.65;;;9.20;99.90;;;;;;5065488;28;20410;-68
2022/05/29 02:09:40;;;;;;;14.95;3.17;;;9.30;99.90;;;;;;5064271;28;20108;-68
2022/05/29 02:12:12;;;;;;;13.07;3.63;;;9.30;99.90;;;;;;5062126;28;20041;-68
2022/05/29 02:14:42;;;;;;;15.18;3.58;;;9.30;99.90;;;;;;5061647;28;20065;-68
2022/05/29 02:17:20;;;;;;;12.93;2.85;;;9.30;99.90;;;;;;5042756;28;20075;-68
2022/05/29 02:19:56;;;;;;;13.05;3.22;;;9.30;99.90;;;;;;5051787;28;20032;-68
2022/05/29 02:22:27;;;;;;;15.90;3.42;;;9.30;99.90;;;;;;5065078;28;20043;-68
2022/05/29 02:24:57;;;;;;;15.63;3.65;;;9.20;99.90;;;;;;5067460;28;20121;-68
2022/05/29 02:27:45;;;;;;;14.43;3.60;;;9.30;99.90;;;;;;5068437;28;20045;-68
2022/05/29 02:30:12;;;;;;;14.35;3.35;;;9.20;99.90;;;;;;5067407;28;20037;-68
2022/05/29 02:32:49;;;;;;;11.30;3.47;;;9.10;99.90;;;;;;5045760;28;20500;-68
2022/05/29 02:35:24;;;;;;;12.18;3.10;;;9.10;99.90;;;;;;5034880;28;20049;-68
2022/05/29 02:38:00;;;;;;;10.43;3.00;;;9.20;99.90;;;;;;5039216;28;20045;-68
2022/05/29 02:40:35;;;;;;;14.38;4.10;;;9.10;99.90;;;;;;5046140;28;20039;-68
2022/05/29 02:43:09;;;;;;;12.45;3.15;;;9.10;99.90;;;;;;5060122;28;20099;-68
2022/05/29 02:45:51;;;;;;;;;;;9.10;99.90;;;;;;5060332;28;20079;-68
2022/05/29 02:48:29;;;;;;;12.25;3.40;;;9.10;99.90;;;;;;5065807;28;19917;-68
2022/05/29 02:51:02;;;;;;;11.07;2.90;;;9.10;99.90;;;;;;5065773;28;20043;-68
2022/05/29 02:53:28;;;;;;;13.30;3.60;;;9.10;99.90;;;;;;5065851;28;20033;-68
2022/05/29 02:55:54;;;;;;;13.13;3.28;;;9.10;99.90;;;;;;5066328;28;20048;-68
2022/05/29 02:58:24;;;;;;;12.13;3.63;;;9.10;99.90;;;;;;5047360;28;20531;-68
2022/05/29 03:01:05;;;;;;;10.98;3.20;;;9.20;99.90;;;;;;5068946;28;20119;-68
2022/05/29 03:03:54;;;;;;;15.30;3.58;;;9.20;99.90;;;;;;5043147;28;20053;-68
2022/05/29 03:06:37;;;;;;;11.35;3.38;;;9.20;99.90;;;;;;5047648;28;20056;-68
2022/05/29 03:09:17;;;;;;;12.93;3.25;;;9.20;99.90;;;;;;5046593;28;20064;-68
2022/05/29 03:11:45;;;;;;;15.70;3.15;;;9.30;99.90;;;;;;5062809;28;20500;-68
2022/05/29 03:14:35;;;;;;;9.85;2.97;;;9.30;99.90;;;;;;5068226;28;20044;-68
2022/05/29 03:17:12;;;;;;;10.70;3.20;;;9.30;99.90;;;;;;5065598;28;20392;-68
2022/05/29 03:20:09;;;;;;;11.02;3.22;;;9.30;99.90;;;;;;5042623;28;20052;-68
2022/05/29 03:22:51;;;;;;;12.50;4.35;;;9.30;99.90;;;;;;5059275;28;20073;-68
2022/05/29 03:25:48;;;;;;;12.98;3.47;;;9.30;99.90;;;;;;5062463;28;20052;-68
2022/05/29 03:28:28;;;;;;;14.57;3.47;;;9.30;99.90;;;;;;5037791;28;20388;-68
2022/05/29 03:30:57;;;;;;;10.07;2.65;;;9.30;99.90;;;;;;5045722;28;20037;-68
2022/05/29 03:33:23;;;;;;;14.45;3.65;;;9.30;99.90;;;;;;5065717;28;20045;-68
2022/05/29 03:35:52;;;;;;;12.82;3.22;;;9.30;99.90;;;;;;5066907;28;20043;-68
2022/05/29 03:38:17;;;;;;;10.05;2.92;;;9.40;99.90;;;;;;5062295;28;20076;-68
2022/05/29 03:40:43;;;;;;;7.97;2.53;;;9.40;99.90;;;;;;5068466;28;20480;-68
2022/05/29 03:43:09;;;;;;;7.70;2.25;;;9.40;99.90;;;;;;5046274;28;20684;-68
2022/05/29 03:45:35;;;;;;;13.77;2.92;;;9.40;99.90;;;;;;5069850;28;20040;-68
2022/05/29 03:48:02;;;;;;;11.38;2.83;;;9.40;99.90;;;;;;5063011;28;20068;-68
2022/05/29 03:50:28;;;;;;;10.05;2.53;;;9.50;99.90;;;;;;5037145;28;20045;-68
2022/05/29 03:52:54;;;;;;;13.95;3.03;;;9.50;99.90;;;;;;5063480;28;20043;-68
2022/05/29 03:55:24;;;;;;;19.25;8.95;;;9.50;99.90;;;;;;5046536;28;20140;-68
2022/05/29 03:57:50;;;;;;;20.42;8.55;;;9.50;99.90;;;;;;5049914;28;20372;-68
2022/05/29 04:00:17;;;;;;;19.05;9.05;;;9.60;99.90;;;;;;5065178;28;20086;-68
2022/05/29 04:02:46;;;;;;;13.30;3.03;;;9.60;99.90;;;;;;5048058;28;20052;-68
2022/05/29 04:05:19;;;;;;;12.65;2.60;;;9.60;99.90;;;;;;5048208;28;20420;-68
2022/05/29 04:13:15;;;;;;;11.10;2.53;;;9.60;99.90;;;;;;5060221;28;20524;-68
2022/05/29 04:15:46;;;;;;;10.35;2.53;;;9.60;99.90;;;;;;5043883;28;20079;-68
2022/05/29 04:18:18;;;;;;;11.52;2.58;;;9.70;99.90;;;;;;5038649;28;20079;-68
2022/05/29 04:20:45;;;;;;;12.13;2.58;;;9.70;99.90;;;;;;5045127;28;20102;-68
2022/05/29 04:23:12;;;;;;;13.57;2.90;;;9.70;99.90;;;;;;5025126;28;20060;-68
2022/05/29 04:25:38;;;;;;;11.63;3.05;;;9.70;99.90;;;;;;5065122;28;20068;-68
2022/05/29 04:28:07;;;;;;;14.45;3.15;;;9.80;99.90;;;;;;5047525;28;20047;-68
2022/05/29 04:30:33;;;;;;;11.52;3.35;;;9.70;99.90;;;;;;5043722;28;20052;-68
2022/05/29 04:33:01;;;;;;;12.65;3.88;;;9.70;99.90;;;;;;5044413;28;20068;-68
2022/05/29 04:35:29;;;;;;;13.57;3.15;;;9.80;99.90;;;;;;5067391;28;20060;-68
2022/05/29 04:37:55;;;;;;;16.33;2.95;;;9.90;99.90;;;;;;5056648;28;20043;-68
2022/05/29 04:40:22;;;;;;;11.90;2.95;;;9.90;99.90;;;;;;5067861;28;20036;-68
2022/05/29 04:42:48;;;;;;;12.90;3.17;;;9.90;99.90;;;;;;5045520;28;20451;-68
2022/05/29 04:45:14;;;;;;;11.05;2.78;;;9.80;99.90;;;;;;5063424;28;20048;-68
2022/05/29 04:47:40;;;;;;;10.60;3.17;;;9.80;99.90;;;;;;5045055;28;20083;-68
2022/05/29 04:50:07;;;;;;;9.48;2.70;;;9.90;99.90;;;;;;5064611;28;20065;-68
2022/05/29 04:52:34;;;;;;;11.20;3.25;;;9.90;99.90;;;;;;5067383;28;20798;-68
2022/05/29 04:55:00;;;;;;;11.35;2.10;;;10.00;99.90;;;;;;5060150;28;20120;-68
2022/05/29 04:57:26;;;;;;;9.65;2.15;;;10.00;99.90;;;;;;5046111;28;20110;-68
2022/05/29 04:59:52;;;;;;;12.05;2.90;;;10.00;99.90;;;;;;5057784;28;20033;-68
2022/05/29 05:02:18;;;;;;;9.15;1.92;;;10.00;99.90;;;;;;5057973;28;20033;-68
2022/05/29 05:04:43;;;;;;;9.95;2.50;;;10.00;99.90;;;;;;5068125;28;20106;-69
2022/05/29 05:07:09;;;;;;;9.32;2.10;;;10.00;99.90;;;;;;5039517;28;20451;-69
2022/05/29 05:09:35;;;;;;;7.80;1.95;;;10.00;99.90;;;;;;5044760;28;20756;-68
2022/05/29 05:12:01;;;;;;;11.40;2.85;;;10.00;99.90;;;;;;5061172;28;20040;-68
2022/05/29 05:14:27;;;;;;;8.38;1.98;;;10.00;99.90;;;;;;5045810;28;20056;-68
2022/05/29 05:16:54;;;;;;;7.72;2.13;;;10.00;99.90;;;;;;5060846;28;20098;-68
2022/05/29 05:19:20;;;;;;;7.43;2.40;;;10.00;99.90;;;;;;5046258;28;20063;-68
2022/05/29 05:21:46;;;;;;;9.40;2.38;;;10.10;99.90;;;;;;5061365;28;20114;-69
2022/05/29 05:24:12;;;;;;;14.73;2.85;;;10.00;99.90;;;;;;5037740;28;20522;-69
2022/05/29 05:26:38;;;;;;;13.73;2.65;;;10.10;99.90;;;;;;5062589;28;20051;-69
2022/05/29 05:29:04;;;;;;;9.35;2.58;;;10.20;99.90;;;;;;5042395;28;20037;-69
2022/05/29 05:31:30;;;;;;;11.98;2.78;;;10.20;99.90;;;;;;5059247;28;20040;-69
2022/05/29 05:33:56;;;;;;;8.65;2.30;;;10.20;99.90;;;;;;5065112;28;20033;-69
2022/05/29 05:36:22;;;;;;;8.27;2.47;;;10.20;99.90;;;;;;5043821;28;20048;-69
2022/05/29 05:38:48;;;;;;;11.25;2.70;;;10.20;99.90;;;;;;5064330;28;20044;-69
2022/05/29 05:41:14;;;;;;;16.45;3.20;;;10.20;99.90;;;;;;5046193;28;20053;-69
2022/05/29 05:43:41;;;;;;;12.65;2.47;;;10.20;99.90;;;;;;5043974;28;20491;-69
2022/05/29 05:46:08;;;;;;;9.70;2.20;;;10.30;99.90;;;;;;5063134;28;20638;-69
2022/05/29 05:48:33;;;;;;;12.30;2.40;;;10.30;99.90;;;;;;5045368;28;20122;-69
2022/05/29 05:50:59;;;;;;;15.02;2.50;;;10.30;99.90;;;;;;5045835;28;20091;-69
2022/05/29 05:53:26;;;;;;;14.13;2.30;;;10.40;99.90;;;;;;5043512;28;20520;-69
2022/05/29 05:55:52;;;;;;;12.40;2.92;;;10.40;99.90;;;;;;5042021;28;20048;-69
2022/05/29 05:58:17;;;;;;;10.35;2.60;;;10.50;99.90;;;;;;5046672;28;20201;-69
2022/05/29 06:00:44;;;;;;;13.70;2.78;;;10.50;99.90;;;;;;5045329;28;20060;-69
2022/05/29 06:03:10;;;;;;;7.75;2.10;;;10.60;99.90;;;;;;5062627;28;20032;-69
2022/05/29 06:05:35;;;;;;;8.90;2.47;;;10.70;99.90;;;;;;5064077;28;20451;-70
2022/05/29 06:08:01;;;;;;;11.65;2.63;;;10.90;99.90;;;;;;5038158;28;20060;-70
2022/05/29 06:10:27;;;;;;;9.40;2.42;;;11.00;99.90;;;;;;5040603;28;20060;-70
2022/05/29 06:12:53;;;;;;;8.13;2.10;;;11.10;99.90;;;;;;5038119;28;20040;-70
2022/05/29 06:15:18;;;;;;;11.00;2.33;;;11.20;99.90;;;;;;5036449;28;20110;-70
2022/05/29 06:17:44;;;;;;;10.73;2.42;;;11.20;99.90;;;;;;5036360;28;20738;-70
2022/05/29 06:20:11;;;;;;;14.13;2.90;;;11.30;99.90;;;;;;5062571;28;20109;-70
2022/05/29 06:22:41;;;;;;;11.45;2.25;;;11.30;99.90;;;;;;5041725;28;20412;-70
2022/05/29 06:25:07;;;;;;;11.10;1.98;;;11.20;99.90;;;;;;5030821;28;20100;-69
2022/05/29 06:27:40;;;;;;;8.65;1.80;;;11.20;99.90;;;;;;5059779;28;20045;-69
2022/05/29 06:30:09;;;;;;;7.00;1.85;;;11.20;99.90;;;;;;5027060;28;20052;-69
2022/05/29 06:32:35;;;;;;;12.30;2.22;;;11.30;99.90;;;;;;5063074;28;20033;-69
2022/05/29 06:35:02;;;;;;;9.95;1.80;;;11.30;99.90;;;;;;5043774;28;20116;-69
2022/05/29 06:37:29;;;;;;;11.32;1.75;;;11.20;99.90;;;;;;5038194;28;20127;-69
2022/05/29 06:39:56;;;;;;;14.75;2.03;;;11.20;99.90;;;;;;5045674;28;20084;-69
2022/05/29 06:42:21;;;;;;;8.20;1.83;;;11.10;99.90;;;;;;5039266;28;20055;-69
2022/05/29 06:44:47;;;;;;;11.57;1.70;;;11.10;99.90;;;;;;5048630;28;20053;-70
2022/05/29 06:47:15;;;;;;;8.18;1.25;;;10.90;99.90;;;;;;5026592;28;20167;-70
2022/05/29 06:49:41;;;;;;;9.90;1.70;;;10.80;99.90;;;;;;5024933;28;20114;-72
2022/05/29 06:52:10;;;;;;;10.45;1.60;;;10.60;99.90;;;;;;5023702;28;20067;-70
2022/05/29 06:54:36;;;;;;;10.88;1.90;;;10.50;99.90;;;;;;5045152;28;20045;-70
2022/05/29 06:57:06;;;;;;;11.38;1.80;;;10.40;99.90;;;;;;5044362;28;20051;-69
2022/05/29 07:06:58;;;;;;;10.27;2.08;;;10.30;99.90;;;;;;5052932;28;20141;-69
2022/05/29 07:07:50;;;;;;;7.40;1.73;;;10.60;99.90;;;;;;5043508;28;20049;-69
2022/05/29 07:10:16;;;;;;;7.72;1.70;;;10.70;99.90;;;;;;5046392;28;20486;-69
2022/05/29 07:12:42;;;;;;;14.52;2.47;;;10.90;99.90;;;;;;5063803;28;20505;-69
2022/05/29 07:15:08;;;;;;;12.98;2.38;;;11.00;99.90;;;;;;5048826;28;20045;-70
2022/05/29 07:17:35;;;;;;;9.73;2.17;;;11.00;99.90;;;;;;5050128;28;20460;-70
2022/05/29 07:20:04;;;;;;;16.05;2.22;;;11.00;99.90;;;;;;5049023;28;20029;-70
2022/05/29 07:22:32;;;;;;;11.90;1.88;;;11.00;99.90;;;;;;5026819;28;20060;-69
2022/05/29 07:24:58;;;;;;;11.50;2.10;;;11.00;99.90;;;;;;5041604;28;20201;-69
2022/05/29 07:27:23;;;;;;;13.75;2.33;;;11.00;99.90;;;;;;5047581;28;20191;-69
2022/05/29 07:29:49;;;;;;;9.38;2.13;;;11.10;99.90;;;;;;5046000;28;20519;-69
2022/05/29 07:32:15;;;;;;;15.30;2.17;;;11.10;99.90;;;;;;5067368;28;20121;-69
2022/05/29 07:34:44;;;;;;;13.10;1.85;;;11.10;99.90;;;;;;5047778;28;20040;-69
2022/05/29 07:37:13;;;;;;;11.25;2.20;;;11.10;99.90;;;;;;5043523;28;20138;-69
2022/05/29 07:39:43;;;;;;;11.98;2.42;;;11.10;99.90;;;;;;5047052;28;20037;-69
2022/05/29 07:44:53;;;;;;;10.98;2.13;;;11.20;99.90;;;;;;5044380;28;20064;-69
2022/05/29 07:47:21;;;;;;;14.00;1.88;;;11.30;99.90;;;;;;5045012;28;20049;-69
2022/05/29 07:49:47;;;;;;;13.70;2.47;;;11.30;99.90;;;;;;5058381;28;20045;-69
2022/05/29 07:52:13;;;;;;;10.20;1.40;;;11.40;99.90;;;;;;5057759;28;20035;-69
2022/05/29 07:54:39;;;;;;;8.77;1.85;;;11.50;99.90;;;;;;5044802;28;20064;-69
2022/05/29 07:57:05;;;;;;;9.45;1.70;;;11.60;99.90;;;;;;5043500;28;20041;-69
2022/05/29 07:59:31;;;;;;;9.60;1.77;;;11.80;99.90;;;;;;5048709;28;20036;-69
2022/05/29 08:01:57;;;;;;;10.25;1.33;;;12.10;99.90;;;;;;5032307;28;20084;-69
2022/05/29 08:04:23;;;;;;;9.70;1.40;;;12.10;99.90;;;;;;5065845;28;20153;-69
2022/05/29 08:06:49;;;;;;;10.30;1.73;;;12.30;99.90;;;;;;5062019;28;20032;-69
2022/05/29 08:09:15;;;;;;;10.82;1.60;;;12.50;99.90;;;;;;5046858;28;20033;-69
2022/05/29 08:11:41;;;;;;;12.68;1.88;;;12.60;99.90;;;;;;5048404;28;20392;-69
2022/05/29 08:14:07;;;;;;;10.77;1.67;;;12.60;99.90;;;;;;5047252;28;20043;-69
2022/05/29 08:16:34;;;;;;;7.38;1.30;;;12.50;99.90;;;;;;5046078;28;20041;-69
2022/05/29 08:18:59;;;;;;;9.05;1.20;;;12.50;99.90;;;;;;5031117;28;20092;-70
2022/05/29 08:21:25;;;;;;;9.32;1.05;;;12.40;99.90;;;;;;5044654;28;20099;-69
2022/05/29 08:32:04;;;;;;;5.72;0.80;;;12.10;99.90;;;;;;5062714;28;20051;-69
2022/05/29 08:34:29;;;;;;;8.30;1.00;;;12.00;99.90;;;;;;5063019;28;20044;-69
2022/05/29 08:36:56;;;;;;;7.40;1.35;;;11.90;99.90;;;;;;5047986;28;20123;-69
2022/05/29 08:39:23;;;;;;;6.93;1.10;;;11.90;99.90;;;;;;5060417;28;20056;-68
2022/05/29 08:41:52;;;;;;;5.45;0.93;;;11.80;99.90;;;;;;5045754;28;20052;-69
2022/05/29 08:44:49;;;;;;;5.10;0.63;;;11.80;99.90;;;;;;5049599;28;20053;-70
2022/05/29 08:47:20;;;;;;;4.20;0.55;;;11.80;99.90;;;;;;5044427;28;20071;-69
2022/05/29 08:49:48;;;;;;;4.38;0.52;;;11.80;99.90;;;;;;5043385;28;20100;-69
2022/05/29 08:52:57;;;;;;;3.25;0.73;;;11.80;99.90;;;;;;5059482;28;20786;-69
2022/05/29 08:55:27;;;;;;;5.65;0.60;;;12.00;99.90;;;;;;5046534;28;20091;-69
2022/05/29 08:58:13;;;;;;;11.35;4.70;;;12.20;99.90;;;;;;5036734;28;20119;-70
2022/05/29 09:00:44;;;;;;;6.32;2.28;;;12.30;99.90;;;;;;5041463;28;20570;-69
2022/05/29 09:03:28;;;;;;;3.63;0.70;;;12.10;99.90;;;;;;5067255;28;20048;-69
2022/05/29 09:06:08;;;;;;;7.43;1.40;;;12.10;99.90;;;;;;5065199;28;20052;-69
2022/05/29 09:08:40;;;;;;;6.50;0.80;;;12.10;99.90;;;;;;5041984;28;20437;-68
2022/05/29 09:11:16;;;;;;;6.40;0.68;;;12.20;99.90;;;;;;5061893;28;20186;-69
2022/05/29 09:14:15;;;;;;;7.03;0.90;;;12.30;99.90;;;;;;5042190;28;20052;-69
2022/05/29 09:16:46;;;;;;;5.80;0.82;;;12.30;99.90;;;;;;5031985;28;20045;-68
2022/05/29 09:19:36;;;;;;;6.13;0.80;;;12.20;99.90;;;;;;5047094;28;20048;-68
2022/05/29 09:22:24;;;;;;;8.52;1.10;;;12.00;99.90;;;;;;5057270;28;20652;-68
2022/05/29 09:24:57;;;;;;;3.88;0.95;;;12.10;99.90;;;;;;5044611;28;20044;-68
2022/05/29 09:27:24;;;;;;;6.15;1.25;;;12.10;99.90;;;;;;5037678;28;20053;-68
2022/05/29 09:29:53;;;;;;;4.20;0.57;;;12.30;99.90;;;;;;5051272;28;20036;-68
2022/05/29 09:32:28;;;;;;;5.60;0.80;;;12.40;99.90;;;;;;5042885;28;20500;-68
2022/05/29 09:35:18;;;;;;;5.00;0.80;;;12.50;99.90;;;;;;5043842;28;20131;-69
2022/05/29 09:37:59;;;;;;;4.18;0.98;;;12.50;99.90;;;;;;5039805;28;20044;-68
2022/05/29 09:40:47;;;;;;;5.25;0.50;;;12.50;99.90;;;;;;5059808;28;20041;-68
2022/05/29 09:43:23;;;;;;;2.90;0.50;;;12.70;99.90;;;;;;5042197;28;20063;-68
2022/05/29 09:45:50;;;;;;;4.75;0.75;;;12.70;99.90;;;;;;5041991;28;20056;-68
2022/05/29 09:51:19;;;;;;;3.50;0.43;;;12.70;99.90;;;;;;5045179;28;20051;-68
2022/05/29 09:53:52;;;;;;;3.90;0.73;;;12.80;99.90;;;;;;5060445;28;20433;-68
2022/05/29 09:56:33;;;;;;;4.07;1.02;;;12.80;99.90;;;;;;5060761;28;20049;-68
2022/05/29 09:59:04;;;;;;;6.80;0.80;;;12.80;99.90;;;;;;5043479;28;20045;-68
2022/05/29 10:01:38;;;;;;;4.82;0.90;;;12.80;99.90;;;;;;5064678;28;20032;-68
2022/05/29 10:04:08;;;;;;;5.80;1.10;;;12.90;99.90;;;;;;5063394;28;20044;-68
2022/05/29 10:06:41;;;;;;;5.10;0.73;;;12.70;99.90;;;;;;5064825;28;20067;-68
2022/05/29 10:09:21;;;;;;;6.40;1.40;;;12.60;99.90;;;;;;5044365;28;20045;-68
2022/05/29 10:11:58;;;;;;;5.95;0.80;;;12.40;99.90;;;;;;5040724;28;20044;-68
2022/05/29 10:14:36;;;;;;;8.73;1.20;;;12.20;99.90;;;;;;5061801;28;20060;-68
2022/05/29 10:17:25;;;;;;;7.47;2.58;;;12.00;99.90;;;;;;5048718;28;20048;-68
2022/05/29 10:19:51;;;;;;;5.20;0.95;;;11.90;99.90;;;;;;5032174;28;20071;-68
2022/05/29 10:22:26;;;;;;;5.68;0.63;;;11.90;99.90;;;;;;5062127;28;20037;-68
2022/05/29 10:24:52;;;;;;;7.13;1.00;;;12.10;99.90;;;;;;5045896;28;20480;-68
2022/05/29 10:27:25;;;;;;;3.70;0.75;;;12.20;99.90;;;;;;5043605;28;20064;-68
2022/05/29 10:30:00;;;;;;;3.33;0.43;;;12.40;99.90;;;;;;5068263;28;20033;-68
2022/05/29 10:32:31;;;;;;;6.55;1.30;;;12.50;99.90;;;;;;5060883;28;20369;-68
2022/05/29 10:35:25;;;;;;;5.47;1.23;;;12.70;99.90;;;;;;5067951;28;20051;-68
2022/05/29 10:37:53;;;;;;;6.05;1.08;;;12.70;99.90;;;;;;5061067;28;20039;-68
2022/05/29 10:40:22;;;;;;;3.85;0.85;;;12.50;99.90;;;;;;5046657;28;20060;-68
2022/05/29 10:42:54;;;;;;;5.82;0.90;;;12.20;99.90;;;;;;5049074;28;20056;-67
2022/05/29 10:45:25;;;;;;;7.50;0.75;;;11.90;99.90;;;;;;5049774;28;20105;-68
2022/05/29 10:48:02;;;;;;;5.57;0.82;;;11.70;99.90;;;;;;5066178;28;20036;-68
2022/05/29 10:50:36;;;;;;;6.70;1.38;;;11.80;99.90;;;;;;5065393;28;20482;-68
2022/05/29 10:53:32;;;;;;;3.25;0.57;;;11.80;99.90;;;;;;5066687;28;20041;-68
2022/05/29 10:56:23;;;;;;;3.45;0.40;;;12.00;99.90;;;;;;5065785;28;20079;-68
2022/05/29 10:59:08;;;;;;;4.22;0.55;;;12.10;99.90;;;;;;5066680;28;20107;-67
2022/05/29 11:04:55;;;;;;;3.42;0.50;;;12.70;99.90;;;;;;5052810;28;19959;-67
2022/05/29 11:07:56;;;;;;;3.88;0.57;;;13.20;99.90;;;;;;5043468;28;20057;-68
2022/05/29 11:10:55;;;;;;;3.78;0.60;;;13.40;99.90;;;;;;5068616;28;20068;-68
2022/05/29 11:13:37;;;;;;;3.67;0.60;;;13.60;99.90;;;;;;5063254;28;20086;-68
2022/05/29 11:16:25;;;;;;;7.18;3.25;;;13.50;99.90;;;;;;5046869;28;20116;-68
2022/05/29 11:19:14;;;;;;;8.40;1.27;;;13.40;99.90;;;;;;5065863;28;20499;-68
2022/05/29 11:22:00;;;;;;;6.50;0.90;;;13.10;99.90;;;;;;5041662;28;20052;-68
2022/05/29 11:24:31;;;;;;;5.00;0.70;;;12.90;99.90;;;;;;5028474;28;20041;-68
2022/05/29 11:27:40;;;;;;;6.72;0.65;;;12.80;99.90;;;;;;5041331;28;20057;-68
2022/05/29 11:30:08;;;;;;;7.72;0.70;;;12.80;99.90;;;;;;5065950;28;20119;-68
2022/05/29 11:33:07;;;;;;;4.85;0.52;;;12.90;99.90;;;;;;5060048;28;20437;-68
2022/05/29 11:35:39;;;;;;;8.35;1.05;;;12.80;99.90;;;;;;5049800;28;20067;-68
2022/05/29 11:38:36;;;;;;;7.80;1.10;;;12.80;99.90;;;;;;5061877;28;20074;-69
2022/05/29 11:41:12;;;;;;;5.97;1.00;;;12.90;99.90;;;;;;5046867;28;20451;-69
2022/05/29 11:43:52;;;;;;;4.88;0.80;;;13.00;99.90;;;;;;5057331;28;20044;-68
2022/05/29 11:52:57;;;;;;;5.82;0.55;;;13.80;99.90;;;;;;5062775;28;20098;-69
2022/05/29 11:55:27;;;;;;;7.28;0.80;;;13.80;99.90;;;;;;5045959;28;20092;-69
2022/05/29 11:58:20;;;;;;;4.95;1.20;;;13.70;99.90;;;;;;5044820;28;20036;-68
2022/05/29 12:00:58;;;;;;;4.53;0.65;;;13.50;99.90;;;;;;5048959;28;20132;-68
2022/05/29 12:03:40;;;;;;;4.63;0.80;;;13.10;99.90;;;;;;5062270;28;20689;-68
2022/05/29 12:06:14;;;;;;;4.88;1.15;;;12.70;99.90;;;;;;5061154;28;20056;-68
2022/05/29 12:09:05;;;;;;;12.85;11.48;;;12.50;99.90;;;;;;5061195;28;20044;-69
2022/05/29 12:11:58;;;;;;;11.95;2.88;;;12.20;99.90;;;;;;5061673;28;20418;-69
2022/05/29 12:14:51;;;;;;;5.90;1.00;;;12.00;99.90;;;;;;5032261;28;20059;-69
2022/05/29 12:17:28;;;;;;;5.05;1.02;;;12.00;99.90;;;;;;5042782;28;20408;-69
2022/05/29 12:20:12;;;;;;;8.77;1.30;;;12.00;99.90;;;;;;5041858;28;20064;-69
2022/05/29 12:22:48;;;;;;;6.37;1.10;;;12.10;99.90;;;;;;5062556;28;20033;-68
2022/05/29 12:25:38;;;;;;;8.00;1.05;;;12.20;99.90;;;;;;5060223;28;20068;-69
2022/05/29 12:28:10;;;;;;;7.35;0.90;;;12.40;99.90;;;;;;5044468;28;20127;-69
2022/05/29 12:30:45;;;;;;;4.20;0.80;;;12.60;99.90;;;;;;5059397;28;20047;-69
2022/05/29 12:33:22;;;;;;;6.38;0.73;;;12.80;99.90;;;;;;5044278;28;20049;-68
2022/05/29 12:36:16;;;;;;;6.53;0.85;;;12.90;99.90;;;;;;5057131;28;20151;-68
2022/05/29 12:38:54;;;;;;;6.83;1.50;;;13.20;99.90;;;;;;5023735;28;20055;-69
2022/05/29 12:41:45;;;;;;;6.22;0.88;;;13.30;99.90;;;;;;5039668;28;20071;-69
2022/05/29 12:44:19;;;;;;;6.20;1.15;;;13.40;99.90;;;;;;5057075;28;20049;-69
2022/05/29 12:46:57;;;;;;;6.10;1.35;;;13.60;99.90;;;;;;5064603;28;20082;-69
2022/05/29 12:49:33;;;;;;;8.40;1.00;;;13.80;99.90;;;;;;5062344;28;20037;-69
2022/05/29 12:52:18;;;;;;;5.78;1.23;;;13.90;99.90;;;;;;5043768;28;20056;-69
2022/05/29 12:55:20;;;;;;;8.45;1.20;;;13.80;99.90;;;;;;5044259;28;20079;-69
2022/05/29 12:57:53;;;;;;;4.70;0.85;;;13.70;99.90;;;;;;5045891;28;20048;-68
2022/05/29 13:00:48;;;;;;;8.23;1.25;;;13.60;99.90;;;;;;5068050;28;20379;-69
2022/05/29 13:03:35;;;;;;;9.05;1.70;;;13.30;99.90;;;;;;5045963;28;20052;-69
2022/05/29 13:06:22;;;;;;;7.35;1.13;;;13.10;99.90;;;;;;5050580;28;20053;-69
2022/05/29 13:09:27;;;;;;;10.00;1.50;;;13.00;99.90;;;;;;5065090;28;20044;-69
2022/05/29 13:12:01;;;;;;;6.57;1.02;;;12.90;99.90;;;;;;5027699;28;20044;-68
2022/05/29 13:14:27;;;;;;;8.93;0.95;;;12.80;99.90;;;;;;5066133;28;20093;-69
2022/05/29 13:17:12;;;;;;;7.03;0.90;;;12.70;99.90;;;;;;5035186;28;20536;-69
2022/05/29 13:19:57;;;;;;;7.10;1.23;;;12.60;99.90;;;;;;5059525;28;20048;-68
2022/05/29 13:22:47;;;;;;;7.40;1.58;;;12.60;99.90;;;;;;5060708;28;20064;-69
2022/05/29 13:25:14;;;;;;;9.52;1.08;;;12.70;99.90;;;;;;5057783;28;20082;-68
2022/05/29 13:27:40;;;;;;;7.78;1.73;;;12.70;99.90;;;;;;5062025;28;20170;-68
2022/05/29 13:30:28;;;;;;;8.88;1.33;;;12.80;99.90;;;;;;5049329;28;20052;-68
2022/05/29 13:33:29;;;;;;;9.15;1.88;;;12.90;99.90;;;;;;5064572;28;20041;-69
2022/05/29 13:35:58;;;;;;;5.88;1.40;;;13.00;99.90;;;;;;5063957;28;20086;-68
2022/05/29 13:38:46;;;;;;;9.43;1.63;;;13.10;99.90;;;;;;5041104;28;20056;-68
2022/05/29 13:41:31;;;;;;;5.90;1.13;;;13.20;99.90;;;;;;5042458;28;20052;-68
2022/05/29 13:44:17;;;;;;;8.70;1.38;;;13.30;99.90;;;;;;5063306;28;20045;-68
2022/05/29 13:46:43;;;;;;;8.35;1.35;;;13.30;99.90;;;;;;5039216;28;20060;-69
2022/05/29 13:49:22;;;;;;;6.25;1.08;;;13.20;99.90;;;;;;5063401;28;20048;-69
2022/05/29 13:51:49;;;;;;;7.15;0.70;;;13.00;99.90;;;;;;5051189;28;20069;-69
2022/05/29 13:54:25;;;;;;;5.72;0.88;;;12.90;99.90;;;;;;5068970;28;20120;-68
2022/05/29 13:57:05;;;;;;;3.92;0.90;;;12.80;99.90;;;;;;5056640;28;20076;-69